Polgar, Hungary
Current Conditions -  °F | °C
As of 11:45 AM on Wednesday 22 Oct 2014 (Local Time) from LHDC Reporting Station
Overcast Overcast  
Wind Chill: 55°   Ceiling: 3300
Heat Index: 55°   Visibility: 6mi
Dew Point: 52°   Wind: 8mph
Humidity: 88%   Direction: 110°ESE
Pressure: 29.5"   Gusts: NA
Location:  47.87°N, 21.12°E
Report Text: LHDC 220945Z 11007KT 9999 BKN033 OVC083 13/11 Q0999 NOSIG
Loading
Personal Weather Stations






























Interactive Weather Map
Tropical Storm Tracking
New forecast layout! Learn more

10-Day Weather Forecast

Advertisements
Track Severe Weather on mobile